createdAt,value
2023-02-03T00:00:37.607Z,39.30
2023-02-03T00:01:37.680Z,39.80
2023-02-03T00:02:37.680Z,37.20
2023-02-03T00:03:37.602Z,40.00
2023-02-03T00:04:37.568Z,42.50
2023-02-03T00:05:37.615Z,41.00
2023-02-03T00:06:37.540Z,42.40
2023-02-03T00:07:37.556Z,38.60
2023-02-03T00:08:37.542Z,37.70
2023-02-03T00:09:37.531Z,36.20
2023-02-03T00:10:37.496Z,38.80
2023-02-03T00:11:37.534Z,36.90
2023-02-03T00:12:37.488Z,37.40
2023-02-03T00:13:37.495Z,38.00
2023-02-03T00:14:37.452Z,37.90
2023-02-03T00:15:37.470Z,37.70
2023-02-03T00:16:37.493Z,40.30
2023-02-03T00:17:37.487Z,39.40
2023-02-03T00:18:37.421Z,38.50
2023-02-03T00:19:37.441Z,40.60
2023-02-03T00:20:37.394Z,39.10
2023-02-03T00:21:37.404Z,37.90
2023-02-03T00:22:37.371Z,36.50
2023-02-03T00:23:37.407Z,40.50
2023-02-03T00:24:37.350Z,39.60
2023-02-03T00:25:37.600Z,38.80
2023-02-03T00:26:37.337Z,37.50
2023-02-03T00:27:37.365Z,37.30
2023-02-03T00:28:37.317Z,35.20
2023-02-03T00:29:37.337Z,37.90
2023-02-03T00:30:37.290Z,35.20
2023-02-03T00:31:37.456Z,36.60
2023-02-03T00:32:37.348Z,36.50
2023-02-03T00:33:37.286Z,37.10
2023-02-03T00:34:37.260Z,38.10
2023-02-03T00:35:37.273Z,35.60
2023-02-03T00:36:37.219Z,36.50
2023-02-03T00:37:37.258Z,36.40
2023-02-03T00:38:37.202Z,35.90
2023-02-03T00:39:37.224Z,35.70
2023-02-03T00:40:37.179Z,36.60
2023-02-03T00:41:37.215Z,37.20
2023-02-03T00:42:37.177Z,35.00
2023-02-03T00:43:37.205Z,32.10
2023-02-03T00:44:37.140Z,34.50
2023-02-03T00:45:37.196Z,35.70
2023-02-03T00:46:37.120Z,36.00
2023-02-03T00:47:37.143Z,33.50
2023-02-03T00:48:37.110Z,29.00
2023-02-03T00:49:37.339Z,32.30
2023-02-03T00:50:37.071Z,28.90
2023-02-03T00:51:37.086Z,30.20
2023-02-03T00:52:37.079Z,34.20
2023-02-03T00:53:37.065Z,33.30
2023-02-03T00:54:37.046Z,31.70
2023-02-03T00:55:37.319Z,33.90
2023-02-03T00:56:37.011Z,33.20
2023-02-03T00:57:37.033Z,34.90
2023-02-03T00:58:36.999Z,33.00
2023-02-03T00:59:37.018Z,32.60
2023-02-03T01:00:36.976Z,35.40
2023-02-03T01:01:37.083Z,33.70
2023-02-03T01:02:36.993Z,33.30
2023-02-03T01:03:36.967Z,32.30
2023-02-03T01:04:36.927Z,31.50
2023-02-03T01:05:36.929Z,29.10
2023-02-03T01:06:36.909Z,28.70
2023-02-03T01:07:36.941Z,32.00
2023-02-03T01:08:36.880Z,33.20
2023-02-03T01:09:36.907Z,32.30
2023-02-03T01:10:36.867Z,30.10
2023-02-03T01:11:36.880Z,32.90
2023-02-03T01:12:36.846Z,32.10
2023-02-03T01:13:36.880Z,30.60
2023-02-03T01:14:36.818Z,31.90
2023-02-03T01:15:36.840Z,30.50
2023-02-03T01:16:36.804Z,31.40
2023-02-03T01:17:36.820Z,30.20
2023-02-03T01:18:36.780Z,31.80
2023-02-03T01:19:36.812Z,30.30
2023-02-03T01:20:36.760Z,30.60
2023-02-03T01:21:36.793Z,31.30
2023-02-03T01:22:36.733Z,28.40
2023-02-03T01:23:36.745Z,30.00
2023-02-03T01:24:36.719Z,30.40
2023-02-03T01:25:36.771Z,27.70
2023-02-03T01:26:36.693Z,26.70
2023-02-03T01:27:36.848Z,28.50
2023-02-03T01:28:36.675Z,29.10
2023-02-03T01:29:36.680Z,31.30
2023-02-03T01:30:36.690Z,29.20
2023-02-03T01:31:36.872Z,30.80
2023-02-03T01:32:36.627Z,29.70
2023-02-03T01:33:36.650Z,31.90
2023-02-03T01:34:36.614Z,30.40
2023-02-03T01:35:36.637Z,27.50
2023-02-03T01:36:36.589Z,28.70
2023-02-03T01:37:36.631Z,27.60
2023-02-03T01:38:36.568Z,29.40
2023-02-03T01:39:36.577Z,28.20
2023-02-03T01:40:36.554Z,28.50
2023-02-03T01:41:36.559Z,27.30
2023-02-03T01:42:36.546Z,30.20
2023-02-03T01:43:36.561Z,32.00
2023-02-03T01:44:36.527Z,29.00
2023-02-03T01:45:36.520Z,29.70
2023-02-03T01:46:36.477Z,30.40
2023-02-03T01:47:36.495Z,29.20
2023-02-03T01:48:36.461Z,27.80
2023-02-03T01:49:36.498Z,27.60
2023-02-03T01:50:36.436Z,29.90
2023-02-03T01:51:36.450Z,30.20
2023-02-03T01:52:36.417Z,28.80
2023-02-03T01:53:36.429Z,29.00
2023-02-03T01:54:36.391Z,29.70
2023-02-03T01:55:36.439Z,25.10
2023-02-03T01:56:36.373Z,27.90
2023-02-03T01:57:36.386Z,24.10
2023-02-03T01:58:36.350Z,26.80
2023-02-03T01:59:36.362Z,24.70
2023-02-03T02:00:36.332Z,26.70
2023-02-03T02:01:36.396Z,28.80
2023-02-03T02:02:36.351Z,27.80
2023-02-03T02:03:36.321Z,29.00
2023-02-03T02:04:36.289Z,25.90
2023-02-03T02:05:36.311Z,28.80
2023-02-03T02:06:36.265Z,28.10
2023-02-03T02:07:36.321Z,26.50
2023-02-03T02:08:36.250Z,28.60
2023-02-03T02:09:36.256Z,26.20
2023-02-03T02:10:36.231Z,27.30
2023-02-03T02:11:36.260Z,28.10
2023-02-03T02:12:36.216Z,22.00
2023-02-03T02:13:36.236Z,25.20
2023-02-03T02:14:36.182Z,27.90
2023-02-03T02:15:36.241Z,27.00
2023-02-03T02:16:36.157Z,29.60
2023-02-03T02:17:36.168Z,29.20
2023-02-03T02:18:36.146Z,29.40
2023-02-03T02:19:36.171Z,27.10
2023-02-03T02:20:36.116Z,26.70
2023-02-03T02:21:36.128Z,26.70
2023-02-03T02:22:36.118Z,27.80
2023-02-03T02:23:36.113Z,28.00
2023-02-03T02:24:36.073Z,27.30
2023-02-03T02:25:36.100Z,25.10
2023-02-03T02:26:36.050Z,21.90
2023-02-03T02:27:36.110Z,29.70
2023-02-03T02:28:36.044Z,30.50
2023-02-03T02:29:36.042Z,28.60
2023-02-03T02:30:36.038Z,29.60
2023-02-03T02:31:36.178Z,28.40
2023-02-03T02:32:35.987Z,28.90
2023-02-03T02:33:36.000Z,27.80
2023-02-03T02:34:35.965Z,28.00
2023-02-03T02:35:35.995Z,29.50
2023-02-03T02:36:35.951Z,27.60
2023-02-03T02:37:35.997Z,28.50
2023-02-03T02:38:35.921Z,29.80
2023-02-03T02:39:35.937Z,27.30
2023-02-03T02:40:35.909Z,26.70
2023-02-03T02:41:35.924Z,27.70
2023-02-03T02:42:35.880Z,29.50
2023-02-03T02:43:35.916Z,28.30
2023-02-03T02:44:35.868Z,29.80
2023-02-03T02:45:35.879Z,29.90
2023-02-03T02:46:35.913Z,27.60
2023-02-03T02:47:35.851Z,27.90
2023-02-03T02:48:35.821Z,28.30
2023-02-03T02:49:35.858Z,26.30
2023-02-03T02:50:35.812Z,27.10
2023-02-03T02:51:35.806Z,27.20
2023-02-03T02:52:35.780Z,24.80
2023-02-03T02:53:35.789Z,25.20
2023-02-03T02:54:35.754Z,25.40
2023-02-03T02:55:35.787Z,27.20
2023-02-03T02:56:35.731Z,27.40
2023-02-03T02:57:35.751Z,28.00
2023-02-03T02:58:35.731Z,26.60
2023-02-03T02:59:35.727Z,22.90
2023-02-03T03:00:35.696Z,23.10
2023-02-03T03:01:35.901Z,23.60
2023-02-03T03:02:35.676Z,23.20
2023-02-03T03:03:35.678Z,24.30
2023-02-03T03:04:35.666Z,26.10
2023-02-03T03:05:35.657Z,22.50
2023-02-03T03:06:35.626Z,22.30
2023-02-03T03:07:35.662Z,24.20
2023-02-03T03:08:35.606Z,24.60
2023-02-03T03:09:35.618Z,25.40
2023-02-03T03:10:35.627Z,24.90
2023-02-03T03:11:35.594Z,23.80
2023-02-03T03:12:35.566Z,25.30
2023-02-03T03:13:35.590Z,26.10
2023-02-03T03:14:35.542Z,26.70
2023-02-03T03:15:35.608Z,24.20
2023-02-03T03:16:35.516Z,25.50
2023-02-03T03:17:35.558Z,24.10
2023-02-03T03:18:35.500Z,23.80
2023-02-03T03:19:35.534Z,25.40
2023-02-03T03:20:35.481Z,23.70
2023-02-03T03:21:35.496Z,24.00
2023-02-03T03:22:35.457Z,22.60
2023-02-03T03:23:35.466Z,24.10
2023-02-03T03:24:35.434Z,24.60
2023-02-03T03:25:35.498Z,25.20
2023-02-03T03:26:35.421Z,21.20
2023-02-03T03:27:35.591Z,24.90
2023-02-03T03:28:35.429Z,22.80
2023-02-03T03:29:35.399Z,25.50
2023-02-03T03:30:35.392Z,23.50
2023-02-03T03:31:35.694Z,23.30
2023-02-03T03:32:35.355Z,24.10
2023-02-03T03:33:35.374Z,23.50
2023-02-03T03:34:35.325Z,23.80
2023-02-03T03:35:35.341Z,23.10
2023-02-03T03:36:35.310Z,24.40
2023-02-03T03:37:35.487Z,21.20
2023-02-03T03:38:35.286Z,20.30
2023-02-03T03:39:35.299Z,19.80
2023-02-03T03:40:35.262Z,22.50
2023-02-03T03:41:35.277Z,23.00
2023-02-03T03:42:35.238Z,23.40
2023-02-03T03:43:35.299Z,23.10
2023-02-03T03:44:35.218Z,22.10
2023-02-03T03:45:35.231Z,23.60
2023-02-03T03:46:35.240Z,24.40
2023-02-03T03:47:35.220Z,22.00
2023-02-03T03:48:35.175Z,19.70
2023-02-03T03:49:35.190Z,23.40
2023-02-03T03:50:35.185Z,20.90
2023-02-03T03:51:35.165Z,22.80
2023-02-03T03:52:35.159Z,24.10
2023-02-03T03:53:35.131Z,21.20
2023-02-03T03:54:35.157Z,22.80
2023-02-03T03:55:35.122Z,21.50
2023-02-03T03:56:35.115Z,21.40
2023-02-03T03:57:35.090Z,20.60
2023-02-03T03:58:35.094Z,22.40
2023-02-03T03:59:35.064Z,22.60
2023-02-03T04:00:35.071Z,20.90
2023-02-03T04:01:35.161Z,23.20
2023-02-03T04:02:35.246Z,22.50
2023-02-03T04:03:35.047Z,22.30
2023-02-03T04:04:35.043Z,17.80
2023-02-03T04:05:35.023Z,21.10
2023-02-03T04:06:35.016Z,22.10
2023-02-03T04:07:35.000Z,22.60
2023-02-03T04:08:34.999Z,21.20
2023-02-03T04:09:34.972Z,20.50
2023-02-03T04:10:34.974Z,19.90
2023-02-03T04:11:34.934Z,18.80
2023-02-03T04:12:34.953Z,21.80
2023-02-03T04:13:34.928Z,21.20
2023-02-03T04:14:34.969Z,19.70
2023-02-03T04:15:34.895Z,20.70
2023-02-03T04:16:34.972Z,19.60
2023-02-03T04:17:34.870Z,20.90
2023-02-03T04:18:34.886Z,19.50
2023-02-03T04:19:34.877Z,19.00
2023-02-03T04:20:34.867Z,19.30
2023-02-03T04:21:34.834Z,17.60
2023-02-03T04:22:34.835Z,18.70
2023-02-03T04:23:34.805Z,20.00
2023-02-03T04:24:34.830Z,20.70
2023-02-03T04:25:34.814Z,20.30
2023-02-03T04:26:34.801Z,18.90
2023-02-03T04:27:34.781Z,18.00
2023-02-03T04:28:34.774Z,16.00
2023-02-03T04:29:34.739Z,19.20
2023-02-03T04:30:34.842Z,17.50
2023-02-03T04:31:34.789Z,18.90
2023-02-03T04:32:34.750Z,17.90
2023-02-03T04:33:34.706Z,18.70
2023-02-03T04:34:34.711Z,18.30
2023-02-03T04:35:34.684Z,16.90
2023-02-03T04:36:34.696Z,16.80
2023-02-03T04:37:34.679Z,15.90
2023-02-03T04:38:34.699Z,16.60
2023-02-03T04:39:34.646Z,14.70
2023-02-03T04:40:35.173Z,14.00
2023-02-03T04:41:34.622Z,15.80
2023-02-03T04:42:34.627Z,15.60
2023-02-03T04:43:34.607Z,14.60
2023-02-03T04:44:34.602Z,14.30
2023-02-03T04:45:34.618Z,14.50
2023-02-03T04:46:34.584Z,13.00
2023-02-03T04:47:34.558Z,14.20
2023-02-03T04:48:34.564Z,13.20
2023-02-03T04:49:34.545Z,12.70
2023-02-03T04:50:34.543Z,14.10
2023-02-03T04:51:34.508Z,12.90
2023-02-03T04:52:34.524Z,14.10
2023-02-03T04:53:34.487Z,12.70
2023-02-03T04:54:34.504Z,11.90
2023-02-03T04:55:34.513Z,13.90
2023-02-03T04:56:34.481Z,13.20
2023-02-03T04:57:34.447Z,12.50
2023-02-03T04:58:34.458Z,13.00
2023-02-03T04:59:34.424Z,13.50
2023-02-03T05:00:34.432Z,12.90
2023-02-03T05:01:34.431Z,13.70
2023-02-03T05:02:34.414Z,12.10
2023-02-03T05:03:34.460Z,12.60
2023-02-03T05:04:34.394Z,13.30
2023-02-03T05:05:34.362Z,13.20
2023-02-03T05:06:34.383Z,12.40
2023-02-03T05:07:34.356Z,12.40
2023-02-03T05:08:34.353Z,11.30
2023-02-03T05:09:34.313Z,12.20
2023-02-03T05:10:34.329Z,12.50
2023-02-03T05:11:34.313Z,12.60
2023-02-03T05:12:34.306Z,11.60
2023-02-03T05:13:34.910Z,11.30
2023-02-03T05:14:34.264Z,11.90
2023-02-03T05:15:34.257Z,11.80
2023-02-03T05:16:34.352Z,12.80
2023-02-03T05:17:34.237Z,10.80
2023-02-03T05:18:34.243Z,11.80
2023-02-03T05:19:34.225Z,11.60
2023-02-03T05:20:34.220Z,11.00
2023-02-03T05:21:34.199Z,12.10
2023-02-03T05:22:34.202Z,10.80
2023-02-03T05:23:36.521Z,10.90
2023-02-03T05:24:34.181Z,12.00
2023-02-03T05:25:34.159Z,12.30
2023-02-03T05:26:34.162Z,12.00
2023-02-03T05:27:34.123Z,12.20
2023-02-03T05:28:34.145Z,12.60
2023-02-03T05:29:34.115Z,12.10
2023-02-03T05:30:34.167Z,12.10
2023-02-03T05:31:34.213Z,12.90
2023-02-03T05:32:34.106Z,12.60
2023-02-03T05:33:34.061Z,12.20
2023-02-03T05:34:34.070Z,11.50
2023-02-03T05:35:34.040Z,12.50
2023-02-03T05:36:34.058Z,12.80
2023-02-03T05:37:34.041Z,12.50
2023-02-03T05:38:34.044Z,12.30
2023-02-03T05:39:33.994Z,12.30
2023-02-03T05:40:34.018Z,10.80
2023-02-03T05:41:33.994Z,11.50
2023-02-03T05:42:33.986Z,13.00
2023-02-03T05:43:33.972Z,12.00
2023-02-03T05:44:33.980Z,11.90
2023-02-03T05:45:34.051Z,13.00
2023-02-03T05:46:33.960Z,10.50
2023-02-03T05:47:33.916Z,12.10
2023-02-03T05:48:33.924Z,10.60
2023-02-03T05:49:33.905Z,10.20
2023-02-03T05:50:33.907Z,12.50
2023-02-03T05:51:33.866Z,10.80
2023-02-03T05:52:33.885Z,12.20
2023-02-03T05:53:33.861Z,12.40
2023-02-03T05:54:33.858Z,12.00
2023-02-03T05:55:33.881Z,11.10
2023-02-03T05:56:33.843Z,11.70
2023-02-03T05:57:33.810Z,11.60
2023-02-03T05:58:33.832Z,12.20
2023-02-03T05:59:33.788Z,11.70
2023-02-03T06:00:33.796Z,11.90
2023-02-03T06:01:33.783Z,12.00
2023-02-03T06:02:33.782Z,11.90
2023-02-03T06:03:33.787Z,11.70
2023-02-03T06:04:33.840Z,11.50
2023-02-03T06:05:33.733Z,9.80
2023-02-03T06:06:33.753Z,10.70
2023-02-03T06:07:33.711Z,11.70
2023-02-03T06:08:33.714Z,10.90
2023-02-03T06:09:33.677Z,10.30
2023-02-03T06:10:33.699Z,9.80
2023-02-03T06:11:33.693Z,10.00
2023-02-03T06:12:33.674Z,11.80
2023-02-03T06:13:33.669Z,10.40
2023-02-03T06:14:33.660Z,10.80
2023-02-03T06:15:33.612Z,9.60
2023-02-03T06:16:33.661Z,10.30
2023-02-03T06:17:33.589Z,10.00
2023-02-03T06:18:33.602Z,10.00
2023-02-03T06:19:33.601Z,10.40
2023-02-03T06:20:33.583Z,9.90
2023-02-03T06:21:33.555Z,9.70
2023-02-03T06:22:33.572Z,12.10
2023-02-03T06:23:33.527Z,10.70
2023-02-03T06:24:33.537Z,9.20
2023-02-03T06:25:33.521Z,10.50
2023-02-03T06:26:33.535Z,9.50
2023-02-03T06:27:33.489Z,10.50
2023-02-03T06:28:33.613Z,9.50
2023-02-03T06:29:33.466Z,10.20
2023-02-03T06:30:33.528Z,8.90
2023-02-03T06:31:33.602Z,8.70
2023-02-03T06:32:33.456Z,8.80
2023-02-03T06:33:33.433Z,10.40
2023-02-03T06:34:33.437Z,9.70
2023-02-03T06:35:33.416Z,9.80
2023-02-03T06:36:33.424Z,9.60
2023-02-03T06:37:33.429Z,8.80
2023-02-03T06:38:33.405Z,10.80
2023-02-03T06:39:33.362Z,8.40
2023-02-03T06:40:33.372Z,10.50
2023-02-03T06:41:33.334Z,11.00
2023-02-03T06:42:33.346Z,10.80
2023-02-03T06:43:33.336Z,9.10
2023-02-03T06:44:33.328Z,11.90
2023-02-03T06:45:33.296Z,11.90
2023-02-03T06:46:33.326Z,10.20
2023-02-03T06:47:33.271Z,10.70
2023-02-03T06:48:33.285Z,11.10
2023-02-03T06:49:33.274Z,13.10
2023-02-03T06:50:33.259Z,11.20
2023-02-03T06:51:33.229Z,13.50
2023-02-03T06:52:33.241Z,12.20
2023-02-03T06:53:33.212Z,13.70
2023-02-03T06:54:33.219Z,12.70
2023-02-03T06:55:33.209Z,13.20
2023-02-03T06:56:33.202Z,12.40
2023-02-03T06:57:33.181Z,13.30
2023-02-03T06:58:33.180Z,12.20
2023-02-03T06:59:33.146Z,14.20
2023-02-03T07:00:33.258Z,12.60
2023-02-03T07:01:33.217Z,13.40
2023-02-03T07:02:33.166Z,11.30
2023-02-03T07:03:33.118Z,14.00
2023-02-03T07:04:33.114Z,12.10
2023-02-03T07:05:33.091Z,12.70
2023-02-03T07:06:33.096Z,12.90
2023-02-03T07:07:33.083Z,8.90
2023-02-03T07:08:33.091Z,10.20
2023-02-03T07:09:33.048Z,13.30
2023-02-03T07:10:33.075Z,13.20
2023-02-03T07:11:33.028Z,12.50
2023-02-03T07:12:33.029Z,10.80
2023-02-03T07:13:33.025Z,10.60
2023-02-03T07:14:33.005Z,12.60
2023-02-03T07:15:33.013Z,12.70
2023-02-03T07:16:32.989Z,11.50
2023-02-03T07:17:32.949Z,13.80
2023-02-03T07:18:46.921Z,13.20
2023-02-03T07:19:32.955Z,14.80
2023-02-03T07:20:33.048Z,14.20
2023-02-03T07:21:32.909Z,11.70
2023-02-03T07:22:32.918Z,12.40
2023-02-03T07:23:32.885Z,12.10
2023-02-03T07:24:32.899Z,12.20
2023-02-03T07:25:32.881Z,14.10
2023-02-03T07:26:32.884Z,16.30
2023-02-03T07:27:32.918Z,14.30
2023-02-03T07:28:32.859Z,12.00
2023-02-03T07:29:32.821Z,12.40
2023-02-03T07:30:32.835Z,16.50
2023-02-03T07:31:33.023Z,15.80
2023-02-03T07:32:33.862Z,17.50
2023-02-03T07:33:32.815Z,16.90
2023-02-03T07:34:32.794Z,16.70
2023-02-03T07:35:32.763Z,17.00
2023-02-03T07:36:32.771Z,16.70
2023-02-03T07:37:32.750Z,16.90
2023-02-03T07:38:32.755Z,17.50
2023-02-03T07:39:32.721Z,19.10
2023-02-03T07:40:32.729Z,13.10
2023-02-03T07:41:32.812Z,14.80
2023-02-03T07:42:32.706Z,15.50
2023-02-03T07:43:32.703Z,12.70
2023-02-03T07:44:32.685Z,16.40
2023-02-03T07:45:32.654Z,18.30
2023-02-03T07:46:32.720Z,16.20
2023-02-03T07:47:32.628Z,18.70
2023-02-03T07:48:32.649Z,15.20
2023-02-03T07:49:32.648Z,16.20
2023-02-03T07:50:32.629Z,17.00
2023-02-03T07:51:32.590Z,19.60
2023-02-03T07:52:32.597Z,17.80
2023-02-03T07:53:32.606Z,19.60
2023-02-03T07:54:32.581Z,16.50
2023-02-03T07:55:32.563Z,18.40
2023-02-03T07:56:32.559Z,17.70
2023-02-03T07:57:32.526Z,19.80
2023-02-03T07:58:32.565Z,17.90
2023-02-03T07:59:32.502Z,17.60
2023-02-03T08:00:32.514Z,16.90
2023-02-03T08:01:32.546Z,15.70
2023-02-03T08:02:32.504Z,15.40
2023-02-03T08:03:32.462Z,17.30
2023-02-03T08:04:32.548Z,19.00
2023-02-03T08:05:32.463Z,16.70
2023-02-03T08:06:32.446Z,16.10
2023-02-03T08:07:32.469Z,14.50
2023-02-03T08:08:32.408Z,16.40
2023-02-03T08:09:32.418Z,15.80
2023-02-03T08:10:32.386Z,13.80
2023-02-03T08:11:32.402Z,18.80
2023-02-03T08:12:32.367Z,16.70
2023-02-03T08:13:32.389Z,19.00
2023-02-03T08:14:32.348Z,17.80
2023-02-03T08:15:32.355Z,18.00
2023-02-03T08:16:32.370Z,14.90
2023-02-03T08:17:32.333Z,16.70
2023-02-03T08:18:32.808Z,16.80
2023-02-03T08:19:32.344Z,16.10
2023-02-03T08:20:32.280Z,14.70
2023-02-03T08:21:32.291Z,17.20
2023-02-03T08:22:32.259Z,16.20
2023-02-03T08:23:32.277Z,14.00
2023-02-03T08:24:32.237Z,17.30
2023-02-03T08:25:32.285Z,15.30
2023-02-03T08:26:32.217Z,14.60
2023-02-03T08:27:32.231Z,14.80
2023-02-03T08:28:32.202Z,17.00
2023-02-03T08:29:32.207Z,16.30
2023-02-03T08:30:32.177Z,16.40
2023-02-03T08:31:32.324Z,15.90
2023-02-03T08:32:32.152Z,17.10
2023-02-03T08:33:32.162Z,14.80
2023-02-03T08:34:32.130Z,9.90
2023-02-03T08:35:32.143Z,17.50
2023-02-03T08:36:32.133Z,18.00
2023-02-03T08:37:32.140Z,18.20
2023-02-03T08:38:32.091Z,18.60
2023-02-03T08:39:32.106Z,19.20
2023-02-03T08:40:32.097Z,17.10
2023-02-03T08:41:32.079Z,21.20
2023-02-03T08:42:32.051Z,19.10
2023-02-03T08:43:32.078Z,11.90
2023-02-03T08:44:32.030Z,14.80
2023-02-03T08:45:32.094Z,18.50
2023-02-03T08:46:32.016Z,19.10
2023-02-03T08:47:32.019Z,19.50
2023-02-03T08:48:31.985Z,22.20
2023-02-03T08:49:32.008Z,20.80
2023-02-03T08:50:32.041Z,22.00
2023-02-03T08:51:31.977Z,22.70
2023-02-03T08:52:31.941Z,21.50
2023-02-03T08:53:31.955Z,21.60
2023-02-03T08:54:31.967Z,20.00
2023-02-03T08:55:31.951Z,20.20
2023-02-03T08:56:31.896Z,14.40
2023-02-03T08:57:31.907Z,17.90
2023-02-03T08:58:31.877Z,15.10
2023-02-03T08:59:31.900Z,15.60
2023-02-03T09:00:31.856Z,15.00
2023-02-03T09:01:31.942Z,15.70
2023-02-03T09:02:31.840Z,17.80
2023-02-03T09:03:31.842Z,14.30
2023-02-03T09:04:31.829Z,16.70
2023-02-03T09:05:31.828Z,14.40
2023-02-03T09:06:31.798Z,12.80
2023-02-03T09:07:31.814Z,12.20
2023-02-03T09:08:31.768Z,13.50
2023-02-03T09:09:31.783Z,13.10
2023-02-03T09:10:31.761Z,12.10
2023-02-03T09:11:31.767Z,14.50
2023-02-03T09:12:31.730Z,11.60
2023-02-03T09:13:31.755Z,12.00
2023-02-03T09:14:31.750Z,14.40
2023-02-03T09:15:31.755Z,13.30
2023-02-03T09:16:31.739Z,11.30
2023-02-03T09:17:31.704Z,13.10
2023-02-03T09:18:31.665Z,12.00
2023-02-03T09:19:32.042Z,12.40
2023-02-03T09:20:31.999Z,13.00
2023-02-03T09:21:41.338Z,11.70
2023-02-03T09:22:31.623Z,12.50
2023-02-03T09:23:31.633Z,11.90
2023-02-03T09:24:31.600Z,11.90
2023-02-03T09:25:31.634Z,11.40
2023-02-03T09:26:31.587Z,11.30
2023-02-03T09:27:31.589Z,11.10
2023-02-03T09:28:31.562Z,10.30
2023-02-03T09:29:31.575Z,11.30
2023-02-03T09:30:32.117Z,11.00
2023-02-03T09:31:31.647Z,10.70
2023-02-03T09:32:31.513Z,11.10
2023-02-03T09:33:31.530Z,8.60
2023-02-03T09:34:31.498Z,8.70
2023-02-03T09:35:31.534Z,10.00
2023-02-03T09:36:31.478Z,9.00
2023-02-03T09:37:31.503Z,9.80
2023-02-03T09:38:31.452Z,9.80
2023-02-03T09:39:31.459Z,9.90
2023-02-03T09:40:31.555Z,10.70
2023-02-03T09:41:31.439Z,9.80
2023-02-03T09:42:31.407Z,10.50
2023-02-03T09:43:31.431Z,11.00
2023-02-03T09:44:31.383Z,10.40
2023-02-03T09:45:31.409Z,7.10
2023-02-03T09:46:31.362Z,10.30
2023-02-03T09:47:31.373Z,11.50
2023-02-03T09:48:31.343Z,9.80
2023-02-03T09:49:31.379Z,9.30
2023-02-03T09:50:31.335Z,9.80
2023-02-03T09:51:31.333Z,9.50
2023-02-03T09:52:31.314Z,10.00
2023-02-03T09:53:31.313Z,9.60
2023-02-03T09:54:31.290Z,11.00
2023-02-03T09:55:31.320Z,10.20
2023-02-03T09:56:31.273Z,8.10
2023-02-03T09:57:31.287Z,9.90
2023-02-03T09:58:31.236Z,9.80
2023-02-03T09:59:31.392Z,9.70
2023-02-03T10:00:31.218Z,11.00
2023-02-03T10:01:31.390Z,9.50
2023-02-03T10:02:31.307Z,10.00
2023-02-03T10:03:31.205Z,10.10
2023-02-03T10:04:31.177Z,7.40
2023-02-03T10:05:31.186Z,10.80
2023-02-03T10:06:31.153Z,10.70
2023-02-03T10:07:31.193Z,9.90
2023-02-03T10:08:31.140Z,10.70
2023-02-03T10:09:31.153Z,9.70
2023-02-03T10:10:31.112Z,10.70
2023-02-03T10:11:31.124Z,10.50
2023-02-03T10:12:31.087Z,10.90
2023-02-03T10:13:31.134Z,11.00
2023-02-03T10:14:31.076Z,9.60
2023-02-03T10:15:31.081Z,11.80
2023-02-03T10:16:31.116Z,10.70
2023-02-03T10:17:31.058Z,10.70
2023-02-03T10:18:31.047Z,11.30
2023-02-03T10:19:31.050Z,12.00
2023-02-03T10:20:31.002Z,11.50
2023-02-03T10:21:31.039Z,11.00
2023-02-03T10:22:30.984Z,10.70
2023-02-03T10:23:30.993Z,11.50
2023-02-03T10:24:30.959Z,10.20
2023-02-03T10:25:30.993Z,9.10
2023-02-03T10:26:30.938Z,12.30
2023-02-03T10:27:30.961Z,10.70
2023-02-03T10:28:30.921Z,11.40
2023-02-03T10:29:30.947Z,10.40
2023-02-03T10:30:31.671Z,11.80
2023-02-03T10:31:31.061Z,11.50
2023-02-03T10:32:30.881Z,12.50
2023-02-03T10:33:30.884Z,10.40
2023-02-03T10:34:30.857Z,10.70
2023-02-03T10:35:30.869Z,12.50
2023-02-03T10:36:30.844Z,11.40
2023-02-03T10:37:31.046Z,8.70
2023-02-03T10:38:30.809Z,9.30
2023-02-03T10:39:30.821Z,10.20
2023-02-03T10:40:31.123Z,9.10
2023-02-03T10:41:30.796Z,10.30
2023-02-03T10:42:30.769Z,9.80
2023-02-03T10:43:30.795Z,9.90
2023-02-03T10:44:30.744Z,8.90
2023-02-03T10:45:30.768Z,10.80
2023-02-03T10:46:30.768Z,9.40
2023-02-03T10:47:30.739Z,10.00
2023-02-03T10:48:30.703Z,10.00
2023-02-03T10:49:30.741Z,9.40
2023-02-03T10:50:31.116Z,9.10
2023-02-03T10:51:30.698Z,10.80
2023-02-03T10:52:30.662Z,11.30
2023-02-03T10:53:30.681Z,11.00
2023-02-03T10:54:30.669Z,9.10
2023-02-03T10:55:30.689Z,9.70
2023-02-03T10:56:30.617Z,9.00
2023-02-03T10:57:30.628Z,10.60
2023-02-03T10:58:30.597Z,10.00
2023-02-03T10:59:30.628Z,10.40
2023-02-03T11:00:30.860Z,10.30
2023-02-03T11:01:30.641Z,10.50
2023-02-03T11:02:30.662Z,10.50
2023-02-03T11:03:30.566Z,8.50
2023-02-03T11:04:30.537Z,10.20
2023-02-03T11:05:30.555Z,9.40
2023-02-03T11:06:30.519Z,8.70
2023-02-03T11:07:30.570Z,9.70
2023-02-03T11:08:30.490Z,10.00
2023-02-03T11:09:30.724Z,9.60
2023-02-03T11:10:30.870Z,7.60
2023-02-03T11:11:30.501Z,6.80
2023-02-03T11:12:30.449Z,9.10
2023-02-03T11:13:30.494Z,7.00
2023-02-03T11:14:30.427Z,7.30
2023-02-03T11:15:30.436Z,8.20
2023-02-03T11:16:30.418Z,9.00
2023-02-03T11:17:30.416Z,8.40
2023-02-03T11:18:30.383Z,8.60
2023-02-03T11:19:30.413Z,8.80
2023-02-03T11:20:30.765Z,7.90
2023-02-03T11:21:30.379Z,8.10
2023-02-03T11:22:30.342Z,7.30
2023-02-03T11:23:30.368Z,5.40
2023-02-03T11:24:30.324Z,9.30
2023-02-03T11:25:30.357Z,5.10
2023-02-03T11:26:30.303Z,8.30
2023-02-03T11:27:30.310Z,6.60
2023-02-03T11:28:30.285Z,9.30
2023-02-03T11:29:30.292Z,8.30
2023-02-03T11:30:30.769Z,6.30
2023-02-03T11:31:30.408Z,6.80
2023-02-03T11:32:30.235Z,8.00
2023-02-03T11:33:30.252Z,7.70
2023-02-03T11:34:30.222Z,8.70
2023-02-03T11:35:30.225Z,8.40
2023-02-03T11:36:30.193Z,10.00
2023-02-03T11:37:30.236Z,5.50
2023-02-03T11:38:30.178Z,10.90
2023-02-03T11:39:30.245Z,12.50
2023-02-03T11:40:30.448Z,16.00
2023-02-03T11:41:30.160Z,16.10
2023-02-03T11:42:30.126Z,12.70
2023-02-03T11:43:30.249Z,15.80
2023-02-03T11:44:30.113Z,13.70
2023-02-03T11:45:30.137Z,12.00
2023-02-03T11:46:30.126Z,10.90
2023-02-03T11:47:30.100Z,13.50
2023-02-03T11:48:30.072Z,10.30
2023-02-03T11:49:30.125Z,15.60
2023-02-03T11:50:30.477Z,14.10
2023-02-03T11:51:30.064Z,13.10
2023-02-03T11:52:30.023Z,12.40
2023-02-03T11:53:30.041Z,10.80
2023-02-03T11:54:30.008Z,12.00
2023-02-03T11:55:30.259Z,11.40
2023-02-03T11:56:29.988Z,12.30
2023-02-03T11:57:29.999Z,10.50
2023-02-03T11:58:29.959Z,13.30
2023-02-03T11:59:29.984Z,11.30
2023-02-03T12:00:30.234Z,12.60
2023-02-03T12:01:29.973Z,11.20
2023-02-03T12:02:29.954Z,11.50
2023-02-03T12:03:29.928Z,9.10
2023-02-03T12:04:29.963Z,10.60
2023-02-03T12:05:29.908Z,10.70
2023-02-03T12:06:29.924Z,10.00
2023-02-03T12:07:29.922Z,10.40
2023-02-03T12:08:29.853Z,9.50
2023-02-03T12:09:29.866Z,12.50
2023-02-03T12:10:30.256Z,11.10
2023-02-03T12:11:29.847Z,12.00
2023-02-03T12:12:29.818Z,11.50
2023-02-03T12:13:29.856Z,12.10
2023-02-03T12:14:29.791Z,12.30
2023-02-03T12:15:29.804Z,13.70
2023-02-03T12:16:29.842Z,12.40
2023-02-03T12:17:29.793Z,14.10
2023-02-03T12:18:29.751Z,13.00
2023-02-03T12:19:29.798Z,10.90
2023-02-03T12:20:30.118Z,13.30
2023-02-03T12:21:29.717Z,13.60
2023-02-03T12:22:29.729Z,17.20
2023-02-03T12:23:29.696Z,15.70
2023-02-03T12:24:29.710Z,19.20
2023-02-03T12:25:29.689Z,20.40
2023-02-03T12:26:29.682Z,16.00
2023-02-03T12:27:29.656Z,15.60
2023-02-03T12:28:33.770Z,17.40
2023-02-03T12:29:32.040Z,12.60
2023-02-03T12:30:30.153Z,11.10
2023-02-03T12:31:29.751Z,19.40
2023-02-03T12:32:29.620Z,20.70
2023-02-03T12:33:29.595Z,16.20
2023-02-03T12:34:29.601Z,21.10
2023-02-03T12:35:31.712Z,22.40
2023-02-03T12:36:29.580Z,21.00
2023-02-03T12:37:29.564Z,19.30
2023-02-03T12:38:29.560Z,24.40
2023-02-03T12:39:29.533Z,24.90
2023-02-03T12:40:29.914Z,21.10
2023-02-03T12:41:29.514Z,29.70
2023-02-03T12:42:29.525Z,30.20
2023-02-03T12:43:29.497Z,31.10
2023-02-03T12:44:29.498Z,26.20
2023-02-03T12:45:29.522Z,16.10
2023-02-03T12:46:29.474Z,25.60
2023-02-03T12:47:29.445Z,22.60
2023-02-03T12:48:29.451Z,26.40
2023-02-03T12:49:29.431Z,16.10
2023-02-03T12:50:29.854Z,7.10
2023-02-03T12:51:29.396Z,17.90
2023-02-03T12:52:29.410Z,7.50
2023-02-03T12:53:29.533Z,10.50
2023-02-03T12:54:29.395Z,6.70
2023-02-03T12:55:29.372Z,8.20